sensor_id;sensor_type;location;lat;lon;timestamp;P1;durP1;ratioP1;P2;durP2;ratioP2
33858;SDS011;20156;47.486;12.074;2023-02-01T00:02:21;9.80;;;6.80;;
33858;SDS011;20156;47.486;12.074;2023-02-01T00:04:47;9.70;;;7.43;;
33858;SDS011;20156;47.486;12.074;2023-02-01T00:07:12;10.13;;;7.90;;
33858;SDS011;20156;47.486;12.074;2023-02-01T00:09:37;10.63;;;6.93;;
33858;SDS011;20156;47.486;12.074;2023-02-01T00:12:02;7.60;;;6.33;;
33858;SDS011;20156;47.486;12.074;2023-02-01T00:14:28;10.23;;;6.47;;
33858;SDS011;20156;47.486;12.074;2023-02-01T00:16:54;12.47;;;6.93;;
33858;SDS011;20156;47.486;12.074;2023-02-01T00:19:19;11.63;;;6.97;;
33858;SDS011;20156;47.486;12.074;2023-02-01T00:21:44;6.87;;;5.77;;
33858;SDS011;20156;47.486;12.074;2023-02-01T00:24:11;7.23;;;6.20;;
33858;SDS011;20156;47.486;12.074;2023-02-01T00:26:40;7.77;;;5.93;;
33858;SDS011;20156;47.486;12.074;2023-02-01T00:29:06;7.13;;;5.80;;
33858;SDS011;20156;47.486;12.074;2023-02-01T00:31:32;7.00;;;5.70;;
33858;SDS011;20156;47.486;12.074;2023-02-01T00:33:58;8.37;;;5.63;;
33858;SDS011;20156;47.486;12.074;2023-02-01T00:36:23;10.27;;;7.97;;
33858;SDS011;20156;47.486;12.074;2023-02-01T00:38:48;10.97;;;6.83;;
33858;SDS011;20156;47.486;12.074;2023-02-01T00:41:14;11.87;;;6.90;;
33858;SDS011;20156;47.486;12.074;2023-02-01T00:43:40;7.37;;;5.63;;
33858;SDS011;20156;47.486;12.074;2023-02-01T00:46:05;8.57;;;6.00;;
33858;SDS011;20156;47.486;12.074;2023-02-01T00:48:31;8.27;;;6.93;;
33858;SDS011;20156;47.486;12.074;2023-02-01T00:51:03;9.97;;;8.23;;
33858;SDS011;20156;47.486;12.074;2023-02-01T00:53:29;13.07;;;7.93;;
33858;SDS011;20156;47.486;12.074;2023-02-01T00:55:55;12.30;;;8.80;;
33858;SDS011;20156;47.486;12.074;2023-02-01T00:58:21;11.00;;;7.57;;
33858;SDS011;20156;47.486;12.074;2023-02-01T01:00:48;10.87;;;8.57;;
33858;SDS011;20156;47.486;12.074;2023-02-01T01:03:14;12.13;;;8.23;;
33858;SDS011;20156;47.486;12.074;2023-02-01T01:05:45;12.37;;;8.10;;
33858;SDS011;20156;47.486;12.074;2023-02-01T01:08:11;9.10;;;6.80;;
33858;SDS011;20156;47.486;12.074;2023-02-01T01:10:36;11.43;;;6.83;;
33858;SDS011;20156;47.486;12.074;2023-02-01T01:13:01;10.57;;;7.33;;
33858;SDS011;20156;47.486;12.074;2023-02-01T01:15:27;7.93;;;6.23;;
33858;SDS011;20156;47.486;12.074;2023-02-01T01:17:52;6.77;;;5.33;;
33858;SDS011;20156;47.486;12.074;2023-02-01T01:20:17;9.03;;;6.23;;
33858;SDS011;20156;47.486;12.074;2023-02-01T01:22:43;7.23;;;5.53;;
33858;SDS011;20156;47.486;12.074;2023-02-01T01:25:08;8.53;;;6.20;;
33858;SDS011;20156;47.486;12.074;2023-02-01T01:27:33;7.87;;;5.17;;
33858;SDS011;20156;47.486;12.074;2023-02-01T01:29:58;7.07;;;5.30;;
33858;SDS011;20156;47.486;12.074;2023-02-01T01:32:24;8.97;;;6.00;;
33858;SDS011;20156;47.486;12.074;2023-02-01T01:34:49;6.53;;;5.33;;
33858;SDS011;20156;47.486;12.074;2023-02-01T01:37:14;6.57;;;5.30;;
33858;SDS011;20156;47.486;12.074;2023-02-01T01:39:40;5.20;;;4.60;;
33858;SDS011;20156;47.486;12.074;2023-02-01T01:42:05;9.03;;;5.90;;
33858;SDS011;20156;47.486;12.074;2023-02-01T01:47:14;7.57;;;6.13;;
33858;SDS011;20156;47.486;12.074;2023-02-01T01:49:40;6.40;;;5.40;;
33858;SDS011;20156;47.486;12.074;2023-02-01T01:52:05;6.47;;;4.70;;
33858;SDS011;20156;47.486;12.074;2023-02-01T01:54:50;10.00;;;5.87;;
33858;SDS011;20156;47.486;12.074;2023-02-01T01:57:18;9.30;;;6.57;;
33858;SDS011;20156;47.486;12.074;2023-02-01T01:59:46;8.87;;;6.73;;
33858;SDS011;20156;47.486;12.074;2023-02-01T02:02:12;9.10;;;6.83;;
33858;SDS011;20156;47.486;12.074;2023-02-01T02:04:37;11.27;;;7.73;;
33858;SDS011;20156;47.486;12.074;2023-02-01T02:07:10;9.37;;;7.67;;
33858;SDS011;20156;47.486;12.074;2023-02-01T02:09:36;8.10;;;5.63;;
33858;SDS011;20156;47.486;12.074;2023-02-01T02:12:02;11.40;;;6.20;;
33858;SDS011;20156;47.486;12.074;2023-02-01T02:14:27;17.70;;;10.87;;
33858;SDS011;20156;47.486;12.074;2023-02-01T02:17:03;16.90;;;9.50;;
33858;SDS011;20156;47.486;12.074;2023-02-01T02:38:13;12.20;;;8.30;;
33858;SDS011;20156;47.486;12.074;2023-02-01T02:40:48;11.07;;;8.17;;
33858;SDS011;20156;47.486;12.074;2023-02-01T02:43:18;11.63;;;7.33;;
33858;SDS011;20156;47.486;12.074;2023-02-01T02:46:25;10.07;;;7.13;;
33858;SDS011;20156;47.486;12.074;2023-02-01T02:49:12;8.27;;;6.30;;
33858;SDS011;20156;47.486;12.074;2023-02-01T02:51:44;8.17;;;6.73;;
33858;SDS011;20156;47.486;12.074;2023-02-01T02:54:34;10.10;;;7.17;;
33858;SDS011;20156;47.486;12.074;2023-02-01T02:57:24;9.00;;;6.80;;
33858;SDS011;20156;47.486;12.074;2023-02-01T03:00:11;7.77;;;6.40;;
33858;SDS011;20156;47.486;12.074;2023-02-01T03:02:55;10.97;;;8.30;;
33858;SDS011;20156;47.486;12.074;2023-02-01T03:05:40;10.47;;;7.90;;
33858;SDS011;20156;47.486;12.074;2023-02-01T03:08:17;10.37;;;7.57;;
33858;SDS011;20156;47.486;12.074;2023-02-01T03:11:02;11.93;;;8.47;;
33858;SDS011;20156;47.486;12.074;2023-02-01T03:21:12;10.57;;;6.90;;
33858;SDS011;20156;47.486;12.074;2023-02-01T03:23:38;11.23;;;7.20;;
33858;SDS011;20156;47.486;12.074;2023-02-01T03:26:05;8.57;;;6.73;;
33858;SDS011;20156;47.486;12.074;2023-02-01T03:28:32;10.63;;;7.63;;
33858;SDS011;20156;47.486;12.074;2023-02-01T03:30:58;8.27;;;7.07;;
33858;SDS011;20156;47.486;12.074;2023-02-01T03:33:24;11.07;;;7.40;;
33858;SDS011;20156;47.486;12.074;2023-02-01T03:36:01;9.53;;;6.80;;
33858;SDS011;20156;47.486;12.074;2023-02-01T03:43:27;10.07;;;6.97;;
33858;SDS011;20156;47.486;12.074;2023-02-01T03:45:57;11.33;;;7.60;;
33858;SDS011;20156;47.486;12.074;2023-02-01T03:48:23;10.73;;;7.00;;
33858;SDS011;20156;47.486;12.074;2023-02-01T03:50:51;9.97;;;7.10;;
33858;SDS011;20156;47.486;12.074;2023-02-01T03:53:17;12.30;;;7.40;;
33858;SDS011;20156;47.486;12.074;2023-02-01T03:55:44;8.33;;;7.00;;
33858;SDS011;20156;47.486;12.074;2023-02-01T03:58:12;10.33;;;8.50;;
33858;SDS011;20156;47.486;12.074;2023-02-01T04:00:37;11.20;;;8.00;;
33858;SDS011;20156;47.486;12.074;2023-02-01T04:03:04;10.37;;;8.07;;
33858;SDS011;20156;47.486;12.074;2023-02-01T04:05:29;10.47;;;7.43;;
33858;SDS011;20156;47.486;12.074;2023-02-01T04:07:55;9.73;;;7.57;;
33858;SDS011;20156;47.486;12.074;2023-02-01T04:10:20;9.37;;;7.90;;
33858;SDS011;20156;47.486;12.074;2023-02-01T04:12:45;10.70;;;8.07;;
33858;SDS011;20156;47.486;12.074;2023-02-01T04:15:11;12.77;;;9.10;;
33858;SDS011;20156;47.486;12.074;2023-02-01T04:17:36;9.20;;;7.67;;
33858;SDS011;20156;47.486;12.074;2023-02-01T04:20:01;11.03;;;8.47;;
33858;SDS011;20156;47.486;12.074;2023-02-01T04:22:27;11.17;;;9.20;;
33858;SDS011;20156;47.486;12.074;2023-02-01T04:24:53;12.10;;;8.03;;
33858;SDS011;20156;47.486;12.074;2023-02-01T04:27:18;13.07;;;9.20;;
33858;SDS011;20156;47.486;12.074;2023-02-01T04:29:44;10.57;;;8.40;;
33858;SDS011;20156;47.486;12.074;2023-02-01T04:32:10;13.53;;;10.37;;
33858;SDS011;20156;47.486;12.074;2023-02-01T04:34:35;12.90;;;9.77;;
33858;SDS011;20156;47.486;12.074;2023-02-01T04:37:00;11.90;;;9.03;;
33858;SDS011;20156;47.486;12.074;2023-02-01T04:39:26;11.93;;;10.20;;
33858;SDS011;20156;47.486;12.074;2023-02-01T04:41:51;13.00;;;9.17;;
33858;SDS011;20156;47.486;12.074;2023-02-01T04:44:17;11.40;;;9.33;;
33858;SDS011;20156;47.486;12.074;2023-02-01T04:46:43;12.10;;;9.47;;
33858;SDS011;20156;47.486;12.074;2023-02-01T04:49:09;14.13;;;9.87;;
33858;SDS011;20156;47.486;12.074;2023-02-01T04:51:34;11.93;;;9.60;;
33858;SDS011;20156;47.486;12.074;2023-02-01T04:53:59;11.40;;;8.53;;
33858;SDS011;20156;47.486;12.074;2023-02-01T04:56:25;11.83;;;8.97;;
33858;SDS011;20156;47.486;12.074;2023-02-01T04:58:50;13.83;;;9.40;;
33858;SDS011;20156;47.486;12.074;2023-02-01T05:01:15;12.50;;;9.93;;
33858;SDS011;20156;47.486;12.074;2023-02-01T05:03:40;15.83;;;10.20;;
33858;SDS011;20156;47.486;12.074;2023-02-01T05:06:06;11.27;;;9.27;;
33858;SDS011;20156;47.486;12.074;2023-02-01T05:08:31;12.87;;;8.97;;
33858;SDS011;20156;47.486;12.074;2023-02-01T05:10:56;11.37;;;9.03;;
33858;SDS011;20156;47.486;12.074;2023-02-01T05:13:22;11.77;;;9.57;;
33858;SDS011;20156;47.486;12.074;2023-02-01T05:16:06;13.37;;;9.57;;
33858;SDS011;20156;47.486;12.074;2023-02-01T05:18:31;14.13;;;9.03;;
33858;SDS011;20156;47.486;12.074;2023-02-01T05:20:57;12.73;;;9.70;;
33858;SDS011;20156;47.486;12.074;2023-02-01T05:23:22;14.63;;;9.60;;
33858;SDS011;20156;47.486;12.074;2023-02-01T05:25:47;15.03;;;9.37;;
33858;SDS011;20156;47.486;12.074;2023-02-01T05:28:12;9.97;;;6.70;;
33858;SDS011;20156;47.486;12.074;2023-02-01T05:30:38;9.90;;;7.00;;
33858;SDS011;20156;47.486;12.074;2023-02-01T05:33:03;10.63;;;7.13;;
33858;SDS011;20156;47.486;12.074;2023-02-01T05:35:28;12.30;;;7.70;;
33858;SDS011;20156;47.486;12.074;2023-02-01T05:37:53;14.70;;;8.57;;
33858;SDS011;20156;47.486;12.074;2023-02-01T05:40:19;11.13;;;8.57;;
33858;SDS011;20156;47.486;12.074;2023-02-01T05:42:44;13.77;;;9.70;;
33858;SDS011;20156;47.486;12.074;2023-02-01T05:45:09;10.83;;;8.30;;
33858;SDS011;20156;47.486;12.074;2023-02-01T05:47:35;10.57;;;7.93;;
33858;SDS011;20156;47.486;12.074;2023-02-01T05:50:00;14.93;;;10.60;;
33858;SDS011;20156;47.486;12.074;2023-02-01T05:52:25;18.70;;;11.97;;
33858;SDS011;20156;47.486;12.074;2023-02-01T05:54:51;13.73;;;9.83;;
33858;SDS011;20156;47.486;12.074;2023-02-01T05:57:17;12.50;;;10.07;;
33858;SDS011;20156;47.486;12.074;2023-02-01T05:59:43;17.07;;;9.00;;
33858;SDS011;20156;47.486;12.074;2023-02-01T06:02:11;13.87;;;9.30;;
33858;SDS011;20156;47.486;12.074;2023-02-01T06:04:36;11.90;;;8.73;;
33858;SDS011;20156;47.486;12.074;2023-02-01T06:07:01;13.67;;;9.23;;
33858;SDS011;20156;47.486;12.074;2023-02-01T06:09:27;10.60;;;7.70;;
33858;SDS011;20156;47.486;12.074;2023-02-01T06:11:53;10.10;;;8.00;;
33858;SDS011;20156;47.486;12.074;2023-02-01T06:14:18;15.00;;;9.70;;
33858;SDS011;20156;47.486;12.074;2023-02-01T06:16:43;14.80;;;10.90;;
33858;SDS011;20156;47.486;12.074;2023-02-01T06:19:10;15.53;;;9.87;;
33858;SDS011;20156;47.486;12.074;2023-02-01T06:21:35;15.20;;;10.13;;
33858;SDS011;20156;47.486;12.074;2023-02-01T06:24:01;13.73;;;9.87;;
33858;SDS011;20156;47.486;12.074;2023-02-01T06:26:26;14.13;;;10.60;;
33858;SDS011;20156;47.486;12.074;2023-02-01T06:28:53;14.63;;;10.43;;
33858;SDS011;20156;47.486;12.074;2023-02-01T06:31:18;14.10;;;10.40;;
33858;SDS011;20156;47.486;12.074;2023-02-01T06:33:44;11.50;;;9.83;;
33858;SDS011;20156;47.486;12.074;2023-02-01T06:36:10;12.90;;;9.23;;
33858;SDS011;20156;47.486;12.074;2023-02-01T06:38:37;13.93;;;9.73;;
33858;SDS011;20156;47.486;12.074;2023-02-01T06:41:03;14.87;;;9.77;;
33858;SDS011;20156;47.486;12.074;2023-02-01T06:43:29;12.07;;;10.10;;
33858;SDS011;20156;47.486;12.074;2023-02-01T06:45:59;17.47;;;10.33;;
33858;SDS011;20156;47.486;12.074;2023-02-01T06:48:24;11.10;;;9.87;;
33858;SDS011;20156;47.486;12.074;2023-02-01T06:50:49;10.70;;;8.63;;
33858;SDS011;20156;47.486;12.074;2023-02-01T06:53:15;14.17;;;9.60;;
33858;SDS011;20156;47.486;12.074;2023-02-01T06:55:40;10.93;;;8.87;;
33858;SDS011;20156;47.486;12.074;2023-02-01T06:58:05;14.17;;;10.03;;
33858;SDS011;20156;47.486;12.074;2023-02-01T07:00:30;13.77;;;10.47;;
33858;SDS011;20156;47.486;12.074;2023-02-01T07:02:57;14.23;;;9.60;;
33858;SDS011;20156;47.486;12.074;2023-02-01T07:05:22;15.57;;;10.27;;
33858;SDS011;20156;47.486;12.074;2023-02-01T07:07:47;13.20;;;9.30;;
33858;SDS011;20156;47.486;12.074;2023-02-01T07:10:13;14.30;;;10.40;;
33858;SDS011;20156;47.486;12.074;2023-02-01T07:12:38;16.83;;;10.57;;
33858;SDS011;20156;47.486;12.074;2023-02-01T07:15:04;13.63;;;10.03;;
33858;SDS011;20156;47.486;12.074;2023-02-01T07:17:29;15.40;;;10.83;;
33858;SDS011;20156;47.486;12.074;2023-02-01T07:19:55;19.67;;;11.03;;
33858;SDS011;20156;47.486;12.074;2023-02-01T07:22:20;14.57;;;10.90;;
33858;SDS011;20156;47.486;12.074;2023-02-01T07:24:45;16.23;;;10.17;;
33858;SDS011;20156;47.486;12.074;2023-02-01T07:27:11;14.40;;;10.10;;
33858;SDS011;20156;47.486;12.074;2023-02-01T07:29:36;18.73;;;11.70;;
33858;SDS011;20156;47.486;12.074;2023-02-01T07:32:01;16.33;;;10.63;;
33858;SDS011;20156;47.486;12.074;2023-02-01T07:34:27;17.30;;;11.37;;
33858;SDS011;20156;47.486;12.074;2023-02-01T07:36:52;21.07;;;11.67;;
33858;SDS011;20156;47.486;12.074;2023-02-01T07:39:18;15.47;;;10.53;;
33858;SDS011;20156;47.486;12.074;2023-02-01T07:41:43;21.27;;;11.23;;
33858;SDS011;20156;47.486;12.074;2023-02-01T07:44:09;19.53;;;15.70;;
33858;SDS011;20156;47.486;12.074;2023-02-01T07:46:34;17.93;;;12.47;;
33858;SDS011;20156;47.486;12.074;2023-02-01T07:48:59;18.37;;;11.03;;
33858;SDS011;20156;47.486;12.074;2023-02-01T07:51:25;16.90;;;12.47;;
33858;SDS011;20156;47.486;12.074;2023-02-01T07:53:50;14.70;;;11.17;;
33858;SDS011;20156;47.486;12.074;2023-02-01T07:56:16;16.37;;;12.10;;
33858;SDS011;20156;47.486;12.074;2023-02-01T07:58:42;14.23;;;10.53;;
33858;SDS011;20156;47.486;12.074;2023-02-01T08:01:14;24.43;;;18.17;;
33858;SDS011;20156;47.486;12.074;2023-02-01T08:03:58;17.30;;;13.63;;
33858;SDS011;20156;47.486;12.074;2023-02-01T08:06:24;19.57;;;12.20;;
33858;SDS011;20156;47.486;12.074;2023-02-01T08:08:50;19.97;;;12.07;;
33858;SDS011;20156;47.486;12.074;2023-02-01T08:11:16;20.17;;;12.80;;
33858;SDS011;20156;47.486;12.074;2023-02-01T08:13:42;23.03;;;12.73;;
33858;SDS011;20156;47.486;12.074;2023-02-01T08:16:08;26.23;;;17.37;;
33858;SDS011;20156;47.486;12.074;2023-02-01T08:18:34;38.53;;;22.77;;
33858;SDS011;20156;47.486;12.074;2023-02-01T08:21:06;18.97;;;13.10;;
33858;SDS011;20156;47.486;12.074;2023-02-01T08:23:32;18.70;;;12.40;;
33858;SDS011;20156;47.486;12.074;2023-02-01T08:26:08;19.20;;;15.90;;
33858;SDS011;20156;47.486;12.074;2023-02-01T08:28:34;18.27;;;12.50;;
33858;SDS011;20156;47.486;12.074;2023-02-01T08:31:03;17.77;;;11.77;;
33858;SDS011;20156;47.486;12.074;2023-02-01T08:33:28;21.20;;;12.83;;
33858;SDS011;20156;47.486;12.074;2023-02-01T08:35:54;25.00;;;13.30;;
33858;SDS011;20156;47.486;12.074;2023-02-01T08:38:19;22.87;;;13.10;;
33858;SDS011;20156;47.486;12.074;2023-02-01T08:40:44;23.00;;;15.07;;
33858;SDS011;20156;47.486;12.074;2023-02-01T08:43:11;29.73;;;19.23;;
33858;SDS011;20156;47.486;12.074;2023-02-01T08:45:36;16.00;;;11.53;;
33858;SDS011;20156;47.486;12.074;2023-02-01T08:48:02;14.70;;;9.30;;
33858;SDS011;20156;47.486;12.074;2023-02-01T08:50:27;12.97;;;8.20;;
33858;SDS011;20156;47.486;12.074;2023-02-01T08:52:52;10.73;;;7.80;;
33858;SDS011;20156;47.486;12.074;2023-02-01T08:55:18;9.97;;;7.17;;
33858;SDS011;20156;47.486;12.074;2023-02-01T08:57:44;12.23;;;8.23;;
33858;SDS011;20156;47.486;12.074;2023-02-01T09:00:14;12.77;;;8.23;;
33858;SDS011;20156;47.486;12.074;2023-02-01T09:02:40;9.80;;;7.33;;
33858;SDS011;20156;47.486;12.074;2023-02-01T09:05:06;10.63;;;7.40;;
33858;SDS011;20156;47.486;12.074;2023-02-01T09:07:32;10.10;;;7.10;;
33858;SDS011;20156;47.486;12.074;2023-02-01T09:09:57;10.47;;;7.20;;
33858;SDS011;20156;47.486;12.074;2023-02-01T09:12:25;12.53;;;7.63;;
33858;SDS011;20156;47.486;12.074;2023-02-01T09:14:51;14.87;;;8.47;;
33858;SDS011;20156;47.486;12.074;2023-02-01T09:17:16;10.63;;;8.00;;
33858;SDS011;20156;47.486;12.074;2023-02-01T09:19:41;11.33;;;8.23;;
33858;SDS011;20156;47.486;12.074;2023-02-01T09:22:07;14.60;;;8.30;;
33858;SDS011;20156;47.486;12.074;2023-02-01T09:24:32;15.43;;;8.53;;
33858;SDS011;20156;47.486;12.074;2023-02-01T09:26:57;11.63;;;7.90;;
33858;SDS011;20156;47.486;12.074;2023-02-01T09:29:22;11.10;;;7.33;;
33858;SDS011;20156;47.486;12.074;2023-02-01T09:31:48;10.93;;;7.60;;
33858;SDS011;20156;47.486;12.074;2023-02-01T09:34:13;13.80;;;8.67;;
33858;SDS011;20156;47.486;12.074;2023-02-01T09:36:39;10.90;;;7.90;;
33858;SDS011;20156;47.486;12.074;2023-02-01T09:39:04;11.87;;;7.73;;
33858;SDS011;20156;47.486;12.074;2023-02-01T09:41:32;10.57;;;7.73;;
33858;SDS011;20156;47.486;12.074;2023-02-01T09:44:04;12.83;;;7.93;;
33858;SDS011;20156;47.486;12.074;2023-02-01T09:46:33;15.77;;;8.17;;
33858;SDS011;20156;47.486;12.074;2023-02-01T09:49:12;15.77;;;12.20;;
33858;SDS011;20156;47.486;12.074;2023-02-01T09:51:44;13.80;;;9.20;;
33858;SDS011;20156;47.486;12.074;2023-02-01T09:54:15;14.53;;;8.70;;
33858;SDS011;20156;47.486;12.074;2023-02-01T09:56:42;12.90;;;8.00;;
33858;SDS011;20156;47.486;12.074;2023-02-01T09:59:11;12.90;;;8.13;;
33858;SDS011;20156;47.486;12.074;2023-02-01T10:01:42;11.40;;;9.40;;
33858;SDS011;20156;47.486;12.074;2023-02-01T10:04:09;16.77;;;10.70;;
33858;SDS011;20156;47.486;12.074;2023-02-01T10:16:55;12.97;;;9.20;;
33858;SDS011;20156;47.486;12.074;2023-02-01T10:22:05;11.67;;;7.90;;
33858;SDS011;20156;47.486;12.074;2023-02-01T10:29:26;11.00;;;7.60;;
33858;SDS011;20156;47.486;12.074;2023-02-01T10:31:54;10.13;;;7.20;;
33858;SDS011;20156;47.486;12.074;2023-02-01T10:34:26;10.13;;;7.10;;
33858;SDS011;20156;47.486;12.074;2023-02-01T10:36:56;12.77;;;8.10;;
33858;SDS011;20156;47.486;12.074;2023-02-01T10:39:22;10.23;;;7.20;;
33858;SDS011;20156;47.486;12.074;2023-02-01T10:41:48;10.87;;;7.57;;
33858;SDS011;20156;47.486;12.074;2023-02-01T10:44:20;8.80;;;7.07;;
33858;SDS011;20156;47.486;12.074;2023-02-01T10:46:47;13.50;;;8.13;;
33858;SDS011;20156;47.486;12.074;2023-02-01T10:49:24;12.73;;;8.50;;
33858;SDS011;20156;47.486;12.074;2023-02-01T10:51:52;15.73;;;11.63;;
33858;SDS011;20156;47.486;12.074;2023-02-01T10:54:20;11.43;;;7.70;;
33858;SDS011;20156;47.486;12.074;2023-02-01T10:56:46;9.73;;;8.20;;
33858;SDS011;20156;47.486;12.074;2023-02-01T10:59:16;15.17;;;7.97;;
33858;SDS011;20156;47.486;12.074;2023-02-01T11:01:43;11.03;;;7.23;;
33858;SDS011;20156;47.486;12.074;2023-02-01T11:04:12;13.30;;;7.43;;
33858;SDS011;20156;47.486;12.074;2023-02-01T11:06:42;12.33;;;8.10;;
33858;SDS011;20156;47.486;12.074;2023-02-01T11:09:10;35.33;;;31.43;;
33858;SDS011;20156;47.486;12.074;2023-02-01T11:14:18;11.67;;;8.93;;
33858;SDS011;20156;47.486;12.074;2023-02-01T11:17:01;32.90;;;26.37;;
33858;SDS011;20156;47.486;12.074;2023-02-01T11:19:27;24.33;;;21.73;;
33858;SDS011;20156;47.486;12.074;2023-02-01T11:21:53;34.80;;;27.33;;
33858;SDS011;20156;47.486;12.074;2023-02-01T11:24:26;11.80;;;8.23;;
33858;SDS011;20156;47.486;12.074;2023-02-01T11:26:57;12.03;;;8.50;;
33858;SDS011;20156;47.486;12.074;2023-02-01T11:29:22;21.93;;;15.73;;
33858;SDS011;20156;47.486;12.074;2023-02-01T11:31:55;34.70;;;28.03;;
33858;SDS011;20156;47.486;12.074;2023-02-01T11:34:22;19.20;;;17.07;;
33858;SDS011;20156;47.486;12.074;2023-02-01T11:36:49;25.60;;;21.67;;
33858;SDS011;20156;47.486;12.074;2023-02-01T11:44:33;13.57;;;11.33;;
33858;SDS011;20156;47.486;12.074;2023-02-01T11:49:42;9.73;;;6.60;;
33858;SDS011;20156;47.486;12.074;2023-02-01T11:52:10;11.87;;;7.70;;
33858;SDS011;20156;47.486;12.074;2023-02-01T12:07:26;11.27;;;8.43;;
33858;SDS011;20156;47.486;12.074;2023-02-01T12:41:24;11.20;;;6.97;;
33858;SDS011;20156;47.486;12.074;2023-02-01T12:46:17;9.07;;;5.77;;
33858;SDS011;20156;47.486;12.074;2023-02-01T12:48:49;11.67;;;6.53;;
33858;SDS011;20156;47.486;12.074;2023-02-01T12:51:19;9.47;;;7.23;;
33858;SDS011;20156;47.486;12.074;2023-02-01T12:56:34;11.00;;;8.53;;
33858;SDS011;20156;47.486;12.074;2023-02-01T12:59:03;10.93;;;7.87;;
33858;SDS011;20156;47.486;12.074;2023-02-01T13:01:35;14.00;;;8.13;;
33858;SDS011;20156;47.486;12.074;2023-02-01T13:06:37;30.27;;;16.87;;
33858;SDS011;20156;47.486;12.074;2023-02-01T13:09:26;19.20;;;12.03;;
33858;SDS011;20156;47.486;12.074;2023-02-01T13:11:49;16.67;;;9.00;;
33858;SDS011;20156;47.486;12.074;2023-02-01T13:14:19;15.30;;;9.93;;
33858;SDS011;20156;47.486;12.074;2023-02-01T13:16:48;11.40;;;9.17;;
33858;SDS011;20156;47.486;12.074;2023-02-01T13:19:20;12.03;;;8.97;;
33858;SDS011;20156;47.486;12.074;2023-02-01T13:21:56;6.50;;;5.00;;
33858;SDS011;20156;47.486;12.074;2023-02-01T13:25:10;9.80;;;6.90;;
33858;SDS011;20156;47.486;12.074;2023-02-01T13:27:16;8.23;;;5.40;;
33858;SDS011;20156;47.486;12.074;2023-02-01T13:30:06;6.17;;;4.63;;
33858;SDS011;20156;47.486;12.074;2023-02-01T13:32:43;5.00;;;3.40;;
33858;SDS011;20156;47.486;12.074;2023-02-01T13:35:17;4.77;;;2.70;;
33858;SDS011;20156;47.486;12.074;2023-02-01T13:45:17;2.30;;;2.10;;
33858;SDS011;20156;47.486;12.074;2023-02-01T13:47:45;2.23;;;2.03;;
33858;SDS011;20156;47.486;12.074;2023-02-01T13:52:59;2.77;;;2.00;;
33858;SDS011;20156;47.486;12.074;2023-02-01T13:58:01;2.80;;;1.90;;
33858;SDS011;20156;47.486;12.074;2023-02-01T14:00:37;2.23;;;1.90;;
33858;SDS011;20156;47.486;12.074;2023-02-01T14:03:07;3.53;;;1.90;;
33858;SDS011;20156;47.486;12.074;2023-02-01T14:13:31;3.97;;;1.57;;
33858;SDS011;20156;47.486;12.074;2023-02-01T14:23:47;1.40;;;1.30;;
33858;SDS011;20156;47.486;12.074;2023-02-01T14:26:17;2.13;;;1.93;;
33858;SDS011;20156;47.486;12.074;2023-02-01T14:28:44;4.97;;;3.30;;
33858;SDS011;20156;47.486;12.074;2023-02-01T14:31:14;2.17;;;1.97;;
33858;SDS011;20156;47.486;12.074;2023-02-01T14:33:41;1.70;;;1.53;;
33858;SDS011;20156;47.486;12.074;2023-02-01T14:36:08;1.63;;;1.53;;
33858;SDS011;20156;47.486;12.074;2023-02-01T14:38:34;17.97;;;9.70;;
33858;SDS011;20156;47.486;12.074;2023-02-01T14:41:15;22.80;;;12.20;;
33858;SDS011;20156;47.486;12.074;2023-02-01T14:49:11;8.00;;;4.53;;
33858;SDS011;20156;47.486;12.074;2023-02-01T14:51:36;2.47;;;1.80;;
33858;SDS011;20156;47.486;12.074;2023-02-01T14:54:02;5.03;;;2.00;;
33858;SDS011;20156;47.486;12.074;2023-02-01T14:56:27;3.17;;;1.77;;
33858;SDS011;20156;47.486;12.074;2023-02-01T14:59:06;1.50;;;1.40;;
33858;SDS011;20156;47.486;12.074;2023-02-01T15:01:35;1.50;;;1.40;;
33858;SDS011;20156;47.486;12.074;2023-02-01T15:04:15;2.73;;;1.50;;
33858;SDS011;20156;47.486;12.074;2023-02-01T15:06:47;1.47;;;1.37;;
33858;SDS011;20156;47.486;12.074;2023-02-01T15:14:23;3.20;;;1.57;;
33858;SDS011;20156;47.486;12.074;2023-02-01T15:16:48;2.67;;;1.47;;
33858;SDS011;20156;47.486;12.074;2023-02-01T15:19:18;2.23;;;1.40;;
33858;SDS011;20156;47.486;12.074;2023-02-01T15:21:45;2.73;;;1.20;;
33858;SDS011;20156;47.486;12.074;2023-02-01T15:24:12;1.60;;;1.40;;
33858;SDS011;20156;47.486;12.074;2023-02-01T15:26:37;1.60;;;1.10;;
33858;SDS011;20156;47.486;12.074;2023-02-01T15:29:03;1.63;;;1.50;;
33858;SDS011;20156;47.486;12.074;2023-02-01T15:31:48;1.40;;;1.20;;
33858;SDS011;20156;47.486;12.074;2023-02-01T15:34:13;1.77;;;1.47;;
33858;SDS011;20156;47.486;12.074;2023-02-01T15:36:40;1.50;;;1.30;;
33858;SDS011;20156;47.486;12.074;2023-02-01T15:41:37;2.10;;;1.33;;
33858;SDS011;20156;47.486;12.074;2023-02-01T15:44:45;2.67;;;1.50;;
33858;SDS011;20156;47.486;12.074;2023-02-01T15:46:51;1.40;;;1.30;;
33858;SDS011;20156;47.486;12.074;2023-02-01T15:51:43;1.67;;;1.30;;
33858;SDS011;20156;47.486;12.074;2023-02-01T15:54:13;3.07;;;1.70;;
33858;SDS011;20156;47.486;12.074;2023-02-01T15:56:44;2.07;;;1.57;;
33858;SDS011;20156;47.486;12.074;2023-02-01T15:59:17;2.33;;;1.50;;
33858;SDS011;20156;47.486;12.074;2023-02-01T16:01:43;1.50;;;1.40;;
33858;SDS011;20156;47.486;12.074;2023-02-01T16:04:15;2.37;;;1.83;;
33858;SDS011;20156;47.486;12.074;2023-02-01T16:06:52;1.77;;;1.60;;
33858;SDS011;20156;47.486;12.074;2023-02-01T16:09:18;1.80;;;1.53;;
33858;SDS011;20156;47.486;12.074;2023-02-01T16:11:55;1.83;;;1.43;;
33858;SDS011;20156;47.486;12.074;2023-02-01T16:14:20;1.33;;;1.23;;
33858;SDS011;20156;47.486;12.074;2023-02-01T16:16:46;3.60;;;2.30;;
33858;SDS011;20156;47.486;12.074;2023-02-01T16:19:11;1.98;;;1.70;;
33858;SDS011;20156;47.486;12.074;2023-02-01T16:21:36;1.70;;;1.60;;
33858;SDS011;20156;47.486;12.074;2023-02-01T16:24:02;1.90;;;1.23;;
33858;SDS011;20156;47.486;12.074;2023-02-01T16:26:29;2.37;;;1.30;;
33858;SDS011;20156;47.486;12.074;2023-02-01T16:28:55;1.87;;;1.53;;
33858;SDS011;20156;47.486;12.074;2023-02-01T16:31:21;1.50;;;1.40;;
33858;SDS011;20156;47.486;12.074;2023-02-01T16:33:49;1.40;;;1.30;;
33858;SDS011;20156;47.486;12.074;2023-02-01T16:36:15;7.20;;;2.83;;
33858;SDS011;20156;47.486;12.074;2023-02-01T16:38:41;2.73;;;2.50;;
33858;SDS011;20156;47.486;12.074;2023-02-01T16:41:06;5.97;;;5.30;;
33858;SDS011;20156;47.486;12.074;2023-02-01T16:43:33;3.77;;;2.07;;
33858;SDS011;20156;47.486;12.074;2023-02-01T16:45:59;4.33;;;3.93;;
33858;SDS011;20156;47.486;12.074;2023-02-01T16:50:58;8.13;;;5.77;;
33858;SDS011;20156;47.486;12.074;2023-02-01T16:53:25;2.90;;;2.03;;
33858;SDS011;20156;47.486;12.074;2023-02-01T16:55:52;3.77;;;2.87;;
33858;SDS011;20156;47.486;12.074;2023-02-01T16:58:18;6.27;;;4.40;;
33858;SDS011;20156;47.486;12.074;2023-02-01T17:00:43;8.30;;;6.37;;
33858;SDS011;20156;47.486;12.074;2023-02-01T17:03:10;3.63;;;2.83;;
33858;SDS011;20156;47.486;12.074;2023-02-01T17:05:36;14.83;;;9.83;;
33858;SDS011;20156;47.486;12.074;2023-02-01T17:08:02;6.03;;;3.70;;
33858;SDS011;20156;47.486;12.074;2023-02-01T17:10:29;5.40;;;4.10;;